Mount Crested Butte, Colorado
Current Conditions -  °F | °C
As of 9:53 AM on Friday 19 Dec 2014 (Local Time) from KASE Reporting Station
Light Snow Light Snow  
Wind Chill: 21°   Ceiling: 4800
Heat Index: 21°   Visibility: 9mi
Dew Point: 15°   Wind: 0mph
Humidity: 78%   Direction: NA
Pressure: 30.22"   Gusts: NA
Location:  38.8977°N, 106.967°W
Report Text: KASE 191653Z 00000KT 9SM -SN SCT014 SCT025 BKN048 M06/M09 A3022 RMK AO2 SNB39 SLP243 P0000 T10611094
Loading
Personal Weather Stations






























Interactive Weather Map New forecast layout! Learn more

10-Day Weather Forecast

Advertisements
Track Severe Weather on mobile